createdAt,value
2017-11-27T00:02:21.438Z,18.20
2017-11-27T00:04:51.902Z,17.67
2017-11-27T00:07:22.584Z,14.63
2017-11-27T00:09:53.018Z,14.50
2017-11-27T00:12:23.862Z,17.10
2017-11-27T00:14:54.442Z,18.10
2017-11-27T00:17:24.921Z,20.30
2017-11-27T00:19:55.338Z,19.53
2017-11-27T00:22:34.691Z,18.10
2017-11-27T00:25:05.888Z,16.13
2017-11-27T00:27:36.368Z,18.37
2017-11-27T00:30:06.851Z,19.63
2017-11-27T00:32:37.471Z,16.17
2017-11-27T00:35:08.446Z,20.93
2017-11-27T00:37:39.312Z,20.20
2017-11-27T00:40:16.887Z,18.00
2017-11-27T00:42:47.599Z,17.10
2017-11-27T00:45:18.236Z,19.47
2017-11-27T00:47:51.259Z,17.67
2017-11-27T00:50:21.816Z,21.20
2017-11-27T00:52:53.837Z,19.23
2017-11-27T00:55:33.697Z,18.13
2017-11-27T00:58:04.432Z,22.43
2017-11-27T01:00:34.981Z,19.10
2017-11-27T01:03:05.863Z,21.27
2017-11-27T01:05:36.705Z,18.87
2017-11-27T01:08:15.166Z,21.10
2017-11-27T01:10:47.364Z,21.53
2017-11-27T01:13:18.768Z,28.23
2017-11-27T01:15:49.323Z,20.00
2017-11-27T01:18:20.272Z,18.20
2017-11-27T01:20:51.621Z,21.73
2017-11-27T01:23:22.319Z,25.47
2017-11-27T01:25:53.356Z,20.37
2017-11-27T01:28:24.362Z,24.17
2017-11-27T01:30:55.032Z,20.63
2017-11-27T01:33:26.755Z,18.80
2017-11-27T01:35:57.318Z,25.13
2017-11-27T01:38:28.258Z,17.60
2017-11-27T01:40:59.239Z,18.03
2017-11-27T01:43:32.612Z,20.70
2017-11-27T01:46:03.984Z,18.57
2017-11-27T01:48:34.898Z,17.07
2017-11-27T01:51:08.706Z,15.40
2017-11-27T01:53:40.256Z,19.13
2017-11-27T01:56:10.932Z,21.80
2017-11-27T01:58:41.604Z,24.97
2017-11-27T02:01:13.145Z,23.47
2017-11-27T02:03:44.730Z,17.50
2017-11-27T02:06:15.323Z,24.33
2017-11-27T02:08:46.156Z,18.27
2017-11-27T02:11:16.643Z,25.60
2017-11-27T02:13:47.523Z,22.53
2017-11-27T02:16:17.922Z,20.37
2017-11-27T02:18:55.873Z,21.00
2017-11-27T02:21:30.826Z,22.30
2017-11-27T02:43:12.468Z,15.20
2017-11-27T02:49:19.383Z,14.40
2017-11-27T02:51:51.750Z,24.30
2017-11-27T02:54:22.602Z,19.60
2017-11-27T02:56:53.007Z,16.97
2017-11-27T02:59:24.031Z,18.90
2017-11-27T03:01:54.607Z,17.50
2017-11-27T03:04:25.410Z,17.77
2017-11-27T03:06:56.060Z,20.60
2017-11-27T03:09:26.512Z,19.70
2017-11-27T03:12:06.358Z,18.60
2017-11-27T03:14:37.810Z,19.47
2017-11-27T03:17:08.534Z,17.50
2017-11-27T03:19:39.344Z,16.20
2017-11-27T03:22:09.666Z,16.33
2017-11-27T03:24:40.022Z,20.23
2017-11-27T03:27:11.289Z,17.23
2017-11-27T03:29:41.874Z,15.83
2017-11-27T03:32:12.457Z,19.73
2017-11-27T03:34:43.130Z,20.83
2017-11-27T03:37:13.617Z,13.43
2017-11-27T03:39:44.287Z,14.53
2017-11-27T03:42:15.745Z,15.20
2017-11-27T03:44:46.088Z,13.33
2017-11-27T03:47:17.170Z,18.80
2017-11-27T03:49:47.973Z,25.80
2017-11-27T03:52:19.312Z,19.07
2017-11-27T03:54:50.038Z,20.40
2017-11-27T03:57:20.703Z,21.33
2017-11-27T03:59:51.158Z,20.37
2017-11-27T04:02:22.922Z,28.00
2017-11-27T04:04:53.463Z,18.73
2017-11-27T04:07:23.993Z,22.67
2017-11-27T04:09:54.571Z,20.73
2017-11-27T04:12:24.982Z,22.33
2017-11-27T04:14:55.671Z,22.87
2017-11-27T04:17:26.474Z,25.60
2017-11-27T04:19:57.342Z,21.57
2017-11-27T04:22:27.868Z,23.57
2017-11-27T04:24:58.493Z,23.20
2017-11-27T04:27:29.005Z,26.30
2017-11-27T04:29:59.459Z,29.57
2017-11-27T04:32:29.895Z,27.30
2017-11-27T04:35:01.529Z,32.97
2017-11-27T04:37:32.029Z,26.67
2017-11-27T04:40:02.463Z,21.33
2017-11-27T04:42:32.970Z,23.90
2017-11-27T04:45:05.936Z,21.33
2017-11-27T04:47:36.640Z,22.10
2017-11-27T04:50:07.092Z,28.43
2017-11-27T04:52:37.678Z,28.20
2017-11-27T04:55:08.157Z,23.43
2017-11-27T04:57:38.544Z,29.03
2017-11-27T05:00:09.554Z,23.07
2017-11-27T05:02:40.464Z,20.97
2017-11-27T05:05:10.983Z,21.57
2017-11-27T05:07:41.470Z,23.20
2017-11-27T05:10:12.628Z,24.93
2017-11-27T05:12:43.107Z,20.37
2017-11-27T05:15:23.044Z,22.47
2017-11-27T05:17:58.545Z,22.13
2017-11-27T05:20:29.698Z,23.83
2017-11-27T05:23:01.002Z,25.17
2017-11-27T05:25:31.605Z,25.40
2017-11-27T05:28:01.786Z,22.80
2017-11-27T05:30:32.556Z,26.43
2017-11-27T05:33:04.096Z,23.13
2017-11-27T05:35:41.037Z,22.63
2017-11-27T05:38:16.450Z,21.17
2017-11-27T05:40:47.070Z,19.00
2017-11-27T05:43:17.294Z,24.97
2017-11-27T05:45:47.729Z,20.30
2017-11-27T05:48:18.294Z,24.00
2017-11-27T05:50:48.942Z,21.10
2017-11-27T05:53:19.334Z,21.90
2017-11-27T05:55:49.845Z,17.10
2017-11-27T05:58:20.204Z,23.03
2017-11-27T06:00:50.587Z,29.57
2017-11-27T06:03:21.715Z,19.17
2017-11-27T06:05:52.088Z,28.87
2017-11-27T06:08:22.375Z,18.70
2017-11-27T06:10:52.684Z,33.17
2017-11-27T06:13:26.081Z,26.90
2017-11-27T06:15:56.521Z,20.27
2017-11-27T06:18:27.170Z,23.47
2017-11-27T06:20:57.528Z,22.20
2017-11-27T06:23:27.973Z,32.53
2017-11-27T06:25:58.389Z,25.13
2017-11-27T06:28:28.651Z,23.53
2017-11-27T06:31:00.037Z,18.93
2017-11-27T06:33:30.446Z,20.00
2017-11-27T06:36:00.981Z,17.73
2017-11-27T06:38:31.760Z,18.30
2017-11-27T06:41:02.370Z,21.30
2017-11-27T06:43:33.093Z,20.37
2017-11-27T06:46:03.479Z,12.90
2017-11-27T06:48:34.672Z,21.07
2017-11-27T06:51:04.487Z,20.07
2017-11-27T06:53:34.778Z,18.30
2017-11-27T06:56:04.966Z,11.60
2017-11-27T06:58:35.265Z,21.37
2017-11-27T07:01:05.450Z,11.87
2017-11-27T07:03:35.957Z,13.20
2017-11-27T07:06:07.111Z,13.33
2017-11-27T07:08:38.497Z,12.00
2017-11-27T07:11:08.784Z,13.90
2017-11-27T07:13:39.847Z,13.23
2017-11-27T07:16:10.149Z,11.90
2017-11-27T07:18:48.385Z,11.90
2017-11-27T07:21:20.981Z,10.70
2017-11-27T07:23:51.528Z,14.30
2017-11-27T07:26:22.142Z,10.77
2017-11-27T07:28:52.586Z,10.00
2017-11-27T07:31:23.014Z,11.40
2017-11-27T07:33:53.551Z,9.37
2017-11-27T07:36:24.154Z,8.70
2017-11-27T07:40:01.138Z,8.60
2017-11-27T07:42:31.340Z,8.40
2017-11-27T07:45:01.555Z,8.70
2017-11-27T07:47:32.637Z,13.83
2017-11-27T07:50:02.980Z,8.00
2017-11-27T07:52:33.525Z,10.57
2017-11-27T07:55:03.831Z,5.83
2017-11-27T07:57:34.117Z,14.20
2017-11-27T08:00:04.775Z,9.80
2017-11-27T08:02:35.389Z,10.13
2017-11-27T08:05:05.741Z,8.67
2017-11-27T08:07:36.078Z,7.53
2017-11-27T08:10:06.369Z,7.23
2017-11-27T08:12:36.773Z,4.77
2017-11-27T08:15:07.177Z,8.97
2017-11-27T08:17:37.574Z,6.53
2017-11-27T08:20:16.661Z,9.40
2017-11-27T08:22:49.130Z,6.90
2017-11-27T08:25:20.373Z,7.40
2017-11-27T08:27:50.704Z,8.03
2017-11-27T08:30:21.890Z,7.53
2017-11-27T08:32:53.658Z,12.20
2017-11-27T08:35:24.057Z,5.77
2017-11-27T08:37:54.422Z,11.63
2017-11-27T08:40:25.482Z,6.40
2017-11-27T08:42:56.760Z,7.17
2017-11-27T08:45:27.253Z,7.00
2017-11-27T08:47:58.524Z,9.50
2017-11-27T08:50:29.740Z,8.27
2017-11-27T08:53:00.331Z,9.67
2017-11-27T08:55:30.683Z,12.37
2017-11-27T08:58:01.013Z,7.67
2017-11-27T09:00:44.837Z,10.97
2017-11-27T09:03:15.496Z,16.93
2017-11-27T09:05:46.641Z,9.40
2017-11-27T09:08:17.197Z,11.13
2017-11-27T09:10:47.664Z,9.00
2017-11-27T09:13:18.298Z,13.10
2017-11-27T09:15:48.818Z,7.63
2017-11-27T09:18:20.250Z,10.73
2017-11-27T09:20:50.740Z,10.50
2017-11-27T09:23:26.879Z,11.23
2017-11-27T09:25:57.418Z,12.43
2017-11-27T09:28:28.051Z,8.53
2017-11-27T09:30:58.549Z,11.17
2017-11-27T09:33:29.921Z,12.67
2017-11-27T09:36:00.321Z,15.17
2017-11-27T09:38:31.482Z,13.07
2017-11-27T09:41:02.042Z,13.33
2017-11-27T09:43:32.349Z,12.67
2017-11-27T09:46:02.909Z,13.13
2017-11-27T09:48:33.261Z,13.80
2017-11-27T09:51:03.704Z,13.80
2017-11-27T09:53:34.440Z,14.77
2017-11-27T09:56:05.641Z,13.03
2017-11-27T09:58:36.037Z,9.83
2017-11-27T10:01:06.320Z,11.90
2017-11-27T10:03:36.640Z,8.07
2017-11-27T10:06:07.220Z,9.80
2017-11-27T10:08:37.631Z,13.47
2017-11-27T10:11:08.606Z,10.90
2017-11-27T10:13:39.235Z,10.87
2017-11-27T10:16:10.446Z,9.63
2017-11-27T10:18:40.897Z,9.10
2017-11-27T10:21:11.315Z,11.50
2017-11-27T10:23:49.198Z,8.43
2017-11-27T10:26:20.654Z,9.20
2017-11-27T10:28:51.258Z,6.83
2017-11-27T10:31:21.883Z,9.33
2017-11-27T10:33:52.214Z,10.83
2017-11-27T10:36:22.636Z,8.50
2017-11-27T10:38:53.291Z,6.93
2017-11-27T10:41:26.083Z,6.80
2017-11-27T10:43:57.253Z,7.93
2017-11-27T10:46:27.521Z,9.97
2017-11-27T10:48:58.593Z,6.13
2017-11-27T10:51:29.183Z,9.83
2017-11-27T10:54:04.266Z,7.37
2017-11-27T10:56:34.755Z,6.40
2017-11-27T10:59:06.032Z,9.67
2017-11-27T11:01:36.777Z,9.57
2017-11-27T11:04:07.150Z,11.13
2017-11-27T11:06:37.734Z,7.20
2017-11-27T11:09:08.954Z,7.17
2017-11-27T11:11:39.371Z,7.90
2017-11-27T11:14:10.777Z,7.97
2017-11-27T11:16:41.625Z,9.33
2017-11-27T11:19:12.946Z,8.10
2017-11-27T11:21:43.576Z,6.33
2017-11-27T11:24:14.310Z,9.33
2017-11-27T11:26:52.491Z,6.00
2017-11-27T11:29:24.829Z,7.20
2017-11-27T11:31:55.577Z,6.90
2017-11-27T11:34:26.175Z,5.10
2017-11-27T11:36:56.594Z,4.63
2017-11-27T11:39:27.727Z,7.97
2017-11-27T11:41:58.322Z,7.80
2017-11-27T11:44:29.365Z,7.73
2017-11-27T11:46:59.847Z,6.17
2017-11-27T11:49:30.177Z,5.87
2017-11-27T11:52:02.902Z,7.00
2017-11-27T11:54:34.019Z,6.47
2017-11-27T11:57:04.576Z,8.40
2017-11-27T11:59:34.929Z,6.23
2017-11-27T12:02:05.399Z,5.77
2017-11-27T12:04:35.919Z,6.90
2017-11-27T12:07:06.300Z,4.77
2017-11-27T12:09:36.954Z,5.90
2017-11-27T12:12:07.411Z,6.40
2017-11-27T12:14:37.835Z,4.80
2017-11-27T12:17:09.703Z,7.50
2017-11-27T12:19:39.976Z,6.57
2017-11-27T12:22:10.490Z,6.73
2017-11-27T12:24:41.059Z,8.67
2017-11-27T12:27:11.442Z,8.13
2017-11-27T12:29:42.145Z,7.57
2017-11-27T12:32:12.609Z,6.33
2017-11-27T12:34:43.401Z,7.10
2017-11-27T12:37:13.693Z,7.03
2017-11-27T12:39:44.437Z,39.37
2017-11-27T12:42:15.858Z,8.60
2017-11-27T12:44:47.024Z,9.50
2017-11-27T12:47:17.513Z,9.60
2017-11-27T12:49:48.743Z,10.27
2017-11-27T12:52:19.552Z,14.13
2017-11-27T12:54:50.115Z,11.00
2017-11-27T12:57:21.596Z,11.83
2017-11-27T12:59:52.396Z,9.33
2017-11-27T13:02:23.887Z,9.13
2017-11-27T13:04:54.384Z,10.87
2017-11-27T13:07:26.291Z,10.87
2017-11-27T13:09:57.016Z,10.07
2017-11-27T13:12:42.689Z,10.10
2017-11-27T13:15:15.067Z,9.67
2017-11-27T13:17:46.350Z,7.87
2017-11-27T13:20:16.977Z,8.17
2017-11-27T13:22:47.611Z,8.90
2017-11-27T13:25:20.795Z,7.50
2017-11-27T13:27:53.388Z,6.70
2017-11-27T13:30:37.830Z,7.77
2017-11-27T13:33:11.211Z,9.20
2017-11-27T13:38:24.050Z,7.70
2017-11-27T13:40:59.287Z,9.90
2017-11-27T13:43:32.161Z,8.00
2017-11-27T13:46:05.109Z,9.83
2017-11-27T13:48:36.757Z,10.53
2017-11-27T13:51:08.254Z,7.30
2017-11-27T13:53:39.846Z,7.80
2017-11-27T13:56:12.548Z,7.90
2017-11-27T13:58:47.535Z,8.53
2017-11-27T14:02:04.452Z,8.00
2017-11-27T14:08:11.624Z,8.67
2017-11-27T14:10:51.119Z,8.67
2017-11-27T14:15:09.781Z,8.87
2017-11-27T14:17:41.561Z,7.20
2017-11-27T14:20:19.424Z,6.97
2017-11-27T14:22:55.905Z,6.60
2017-11-27T14:25:30.238Z,7.60
2017-11-27T14:28:03.053Z,6.83
2017-11-27T14:30:34.419Z,6.27
2017-11-27T14:33:06.648Z,6.30
2017-11-27T14:35:39.607Z,6.27
2017-11-27T14:38:12.245Z,6.50
2017-11-27T14:41:56.651Z,6.30
2017-11-27T14:44:29.571Z,6.73
2017-11-27T14:47:01.909Z,4.53
2017-11-27T14:54:31.835Z,10.80
2017-11-27T15:03:39.963Z,6.77
2017-11-27T15:09:59.094Z,8.60
2017-11-27T15:12:49.129Z,6.27
2017-11-27T15:15:35.598Z,7.33
2017-11-27T15:20:23.971Z,7.37
2017-11-27T15:23:05.871Z,7.97
2017-11-27T15:26:13.893Z,8.70
2017-11-27T15:29:41.077Z,5.77
2017-11-27T15:36:23.544Z,6.03
2017-11-27T15:39:51.660Z,8.47
2017-11-27T15:51:55.616Z,6.57
2017-11-27T15:57:11.916Z,8.90
2017-11-27T16:06:59.699Z,11.00
2017-11-27T16:09:50.767Z,11.57
2017-11-27T16:13:30.947Z,10.17
2017-11-27T16:16:10.219Z,10.63
2017-11-27T16:18:48.206Z,10.80
2017-11-27T16:45:48.106Z,13.43
2017-11-27T17:00:19.329Z,10.93
2017-11-27T17:07:18.166Z,12.50
2017-11-27T17:09:52.825Z,10.97
2017-11-27T17:12:40.364Z,15.00
2017-11-27T17:15:36.839Z,13.90
2017-11-27T17:25:29.255Z,17.00
2017-11-27T17:28:03.442Z,14.37
2017-11-27T17:31:02.140Z,18.13
2017-11-27T17:34:10.618Z,19.87
2017-11-27T17:48:45.763Z,14.93
2017-11-27T17:52:18.038Z,7.80
2017-11-27T17:54:49.226Z,8.00
2017-11-27T17:57:45.826Z,6.90
2017-11-27T18:01:02.423Z,5.40
2017-11-27T18:03:49.794Z,6.50
2017-11-27T18:06:27.458Z,4.80
2017-11-27T18:08:59.494Z,5.30
2017-11-27T18:14:21.115Z,4.47
2017-11-27T18:17:30.404Z,3.17
2017-11-27T18:22:21.896Z,2.67
2017-11-27T18:30:56.584Z,3.20
2017-11-27T18:44:02.821Z,3.00
2017-11-27T18:46:38.075Z,3.90
2017-11-27T18:58:56.146Z,4.60
2017-11-27T19:07:04.701Z,3.83
2017-11-27T19:17:13.469Z,4.80
2017-11-27T19:19:45.983Z,4.30
2017-11-27T19:22:18.044Z,5.00
2017-11-27T19:24:49.706Z,5.00
2017-11-27T19:27:22.916Z,7.10
2017-11-27T19:29:55.022Z,6.80
2017-11-27T19:32:26.297Z,6.60
2017-11-27T19:34:59.462Z,9.80
2017-11-27T19:37:31.829Z,7.67
2017-11-27T19:40:03.878Z,12.53
2017-11-27T19:42:52.561Z,12.50
2017-11-27T19:45:24.107Z,8.90
2017-11-27T19:47:57.034Z,7.73
2017-11-27T19:52:55.995Z,7.27
2017-11-27T19:55:27.454Z,4.50
2017-11-27T19:57:58.842Z,5.20
2017-11-27T20:00:30.576Z,5.50
2017-11-27T20:03:03.449Z,5.53
2017-11-27T20:05:36.103Z,7.70
2017-11-27T20:08:07.850Z,5.37
2017-11-27T20:10:39.112Z,4.63
2017-11-27T20:13:18.112Z,4.47
2017-11-27T20:15:49.513Z,3.80
2017-11-27T20:18:22.182Z,4.70
2017-11-27T20:20:53.086Z,4.43
2017-11-27T20:23:24.790Z,2.97
2017-11-27T20:25:58.125Z,4.17
2017-11-27T20:28:30.906Z,3.30
2017-11-27T20:31:12.853Z,3.80
2017-11-27T20:33:50.972Z,5.47
2017-11-27T20:36:22.808Z,3.50
2017-11-27T20:38:54.555Z,3.07
2017-11-27T20:41:34.298Z,4.30
2017-11-27T20:47:24.908Z,4.87
2017-11-27T20:50:01.234Z,3.70
2017-11-27T20:53:26.023Z,5.77
2017-11-27T20:56:01.317Z,3.57
2017-11-27T20:58:34.945Z,4.90
2017-11-27T21:01:09.408Z,5.90
2017-11-27T21:03:44.796Z,5.67
2017-11-27T21:06:20.796Z,5.37
2017-11-27T21:08:58.004Z,5.40
2017-11-27T21:11:33.342Z,13.37
2017-11-27T21:14:07.026Z,9.20
2017-11-27T21:16:42.202Z,7.40
2017-11-27T21:19:16.458Z,5.10
2017-11-27T21:21:51.077Z,9.27
2017-11-27T21:24:24.574Z,7.00
2017-11-27T21:26:59.192Z,7.13
2017-11-27T21:29:34.330Z,6.50
2017-11-27T21:32:13.154Z,5.83
2017-11-27T21:34:49.379Z,10.47
2017-11-27T21:37:24.092Z,8.77
2017-11-27T21:39:59.404Z,8.60
2017-11-27T21:42:33.295Z,8.77
2017-11-27T21:45:23.477Z,7.57
2017-11-27T21:48:06.428Z,11.07
2017-11-27T21:50:40.461Z,5.33
2017-11-27T21:53:24.294Z,9.60
2017-11-27T21:55:58.183Z,8.37
2017-11-27T21:58:31.535Z,10.93
2017-11-27T22:01:06.412Z,9.60
2017-11-27T22:03:39.722Z,3.97
2017-11-27T22:06:13.540Z,4.57
2017-11-27T22:08:45.496Z,6.20
2017-11-27T22:11:16.689Z,3.10
2017-11-27T22:13:48.651Z,6.40
2017-11-27T22:16:20.039Z,3.47
2017-11-27T22:18:52.050Z,4.70
2017-11-27T22:21:24.625Z,2.60
2017-11-27T22:23:56.950Z,5.80
2017-11-27T22:26:29.349Z,5.33
2017-11-27T22:29:03.462Z,5.23
2017-11-27T22:34:22.167Z,3.60
2017-11-27T22:36:58.824Z,2.13
2017-11-27T22:39:31.160Z,2.47
2017-11-27T22:42:02.599Z,2.33
2017-11-27T22:44:38.643Z,3.23
2017-11-27T22:47:09.899Z,2.20
2017-11-27T22:49:47.666Z,4.00
2017-11-27T22:52:19.618Z,2.27
2017-11-27T22:54:50.567Z,4.80
2017-11-27T22:57:22.786Z,2.00
2017-11-27T22:59:54.370Z,1.70
2017-11-27T23:02:25.897Z,2.50
2017-11-27T23:04:59.826Z,1.80
2017-11-27T23:07:30.787Z,3.23
2017-11-27T23:10:02.220Z,2.73
2017-11-27T23:12:32.722Z,1.50
2017-11-27T23:15:03.650Z,2.40
2017-11-27T23:17:35.114Z,1.77
2017-11-27T23:20:05.991Z,3.60
2017-11-27T23:22:38.133Z,5.30
2017-11-27T23:25:09.857Z,1.80
2017-11-27T23:27:40.671Z,1.47
2017-11-27T23:30:14.358Z,1.70
2017-11-27T23:32:50.596Z,1.50
2017-11-27T23:35:22.033Z,1.40
2017-11-27T23:37:53.490Z,1.60
2017-11-27T23:40:24.545Z,1.93
2017-11-27T23:42:56.819Z,2.00
2017-11-27T23:45:28.965Z,2.20
2017-11-27T23:47:59.931Z,1.67
2017-11-27T23:50:40.861Z,1.93
2017-11-27T23:53:13.124Z,4.40
2017-11-27T23:55:45.037Z,3.30
2017-11-27T23:58:17.340Z,4.00
